You are listening to:
RJTT Del/Twr/TCA/Gnd - Tokyo, Japan

RJTT 051530Z 01008KT 9999 FEW015 BKN030 10/03 Q1030 NOSIG RMK 1CU015 7SC030 A3044

If stream doesn't start automatically press the play button
If stream stops then reload player then press play